Time;durP1;ratioP1;P1;durP2;ratioP2;P2;SDS_P1;SDS_P2;PMS_P1;PMS_P2;Temp;Humidity;BMP_temperature;BMP_pressure;BME280_temperature;BME280_humidity;BME280_pressure;Samples;Min_cycle;Max_cycle;Signal;HPM_P1;HPM_P2
2021/04/02 00:02:23;;;;;;;1.57;1.00;;;;;;;;;;5059682;28;20483;-71
2021/04/02 00:04:52;;;;;;;2.87;1.47;;;;;;;;;;5058610;28;20458;-70
2021/04/02 00:07:20;;;;;;;4.23;1.73;;;;;;;;;;5057659;28;20465;-70
2021/04/02 00:09:47;;;;;;;2.33;1.33;;;;;;;;;;5059026;28;20489;-72
2021/04/02 00:12:14;;;;;;;3.60;1.23;;;;;;;;;;5056869;28;20488;-72
2021/04/02 00:14:42;;;;;;;3.83;1.37;;;;;;;;;;5058028;28;20476;-71
2021/04/02 00:17:09;;;;;;;2.43;1.77;;;;;;;;;;5056661;28;20517;-72
2021/04/02 00:19:36;;;;;;;1.80;1.10;;;;;;;;;;5055887;28;20448;-71
2021/04/02 00:22:05;;;;;;;2.23;1.10;;;;;;;;;;5057114;28;20869;-71
2021/04/02 00:24:32;;;;;;;2.73;1.37;;;;;;;;;;5056374;28;20736;-72
2021/04/02 00:27:00;;;;;;;2.03;1.13;;;;;;;;;;5056743;28;20463;-72
2021/04/02 00:29:27;;;;;;;2.37;1.10;;;;;;;;;;5056118;28;20489;-72
2021/04/02 00:31:55;;;;;;;2.27;1.13;;;;;;;;;;5056281;28;20880;-71
2021/04/02 00:34:24;;;;;;;2.40;1.20;;;;;;;;;;5055387;28;20782;-72
2021/04/02 00:36:52;;;;;;;3.10;1.20;;;;;;;;;;5056827;28;20508;-72
2021/04/02 00:39:20;;;;;;;2.17;1.53;;;;;;;;;;5056847;28;20452;-72
2021/04/02 00:41:47;;;;;;;2.57;1.30;;;;;;;;;;5056521;28;20457;-72
2021/04/02 00:44:15;;;;;;;2.10;1.27;;;;;;;;;;5056327;28;20454;-71
2021/04/02 00:46:42;;;;;;;2.67;1.10;;;;;;;;;;5056657;28;20598;-72
2021/04/02 00:49:09;;;;;;;2.00;1.20;;;;;;;;;;5056358;28;20485;-72
2021/04/02 00:51:37;;;;;;;3.63;1.50;;;;;;;;;;5056742;28;20457;-72
2021/04/02 00:54:05;;;;;;;3.57;1.50;;;;;;;;;;5056697;28;20469;-71
2021/04/02 00:56:37;;;;;;;2.13;1.10;;;;;;;;;;5056952;28;20457;-72
2021/04/02 00:59:05;;;;;;;2.00;1.10;;;;;;;;;;5056553;28;20720;-72
2021/04/02 01:01:32;;;;;;;3.30;1.13;;;;;;;;;;5056724;28;20461;-72
2021/04/02 01:04:01;;;;;;;2.67;1.10;;;;;;;;;;5056655;28;20523;-72
2021/04/02 01:06:28;;;;;;;2.30;1.20;;;;;;;;;;5056121;28;20460;-72
2021/04/02 01:08:56;;;;;;;2.40;1.10;;;;;;;;;;5056282;28;20804;-72
2021/04/02 01:11:27;;;;;;;2.10;1.23;;;;;;;;;;5056637;28;20522;-71
2021/04/02 01:13:56;;;;;;;1.60;1.07;;;;;;;;;;5056237;28;20747;-72
2021/04/02 01:16:25;;;;;;;3.63;1.43;;;;;;;;;;5056765;28;20779;-72
2021/04/02 01:18:53;;;;;;;2.40;1.70;;;;;;;;;;5056417;28;20507;-72
2021/04/02 01:21:24;;;;;;;2.57;1.20;;;;;;;;;;5056475;28;20468;-72
2021/04/02 01:23:59;;;;;;;3.10;1.47;;;;;;;;;;5056252;28;20454;-72
2021/04/02 01:26:31;;;;;;;4.97;1.30;;;;;;;;;;5056194;28;20515;-72
2021/04/02 01:29:02;;;;;;;3.57;1.73;;;;;;;;;;5056012;28;20450;-72
2021/04/02 01:31:30;;;;;;;3.20;1.40;;;;;;;;;;5056074;28;20522;-71
2021/04/02 01:33:58;;;;;;;3.27;1.50;;;;;;;;;;5056352;28;20578;-72
2021/04/02 01:36:26;;;;;;;2.40;1.77;;;;;;;;;;5056226;28;20473;-72
2021/04/02 01:38:54;;;;;;;3.87;2.27;;;;;;;;;;5055335;28;20457;-72
2021/04/02 01:41:23;;;;;;;4.30;1.63;;;;;;;;;;5056287;28;20495;-72
2021/04/02 01:43:52;;;;;;;2.37;1.40;;;;;;;;;;5056178;28;20460;-72
2021/04/02 01:46:22;;;;;;;5.73;2.20;;;;;;;;;;5057496;28;20458;-71
2021/04/02 01:48:53;;;;;;;2.50;1.40;;;;;;;;;;5059689;28;20960;-72
2021/04/02 01:51:21;;;;;;;2.43;1.67;;;;;;;;;;5059688;28;20482;-72
2021/04/02 01:53:54;;;;;;;2.50;1.40;;;;;;;;;;5059254;28;20445;-71
2021/04/02 01:56:21;;;;;;;2.00;1.40;;;;;;;;;;5059712;28;20472;-72
2021/04/02 01:58:53;;;;;;;1.87;1.20;;;;;;;;;;5059620;28;20463;-71
2021/04/02 02:01:24;;;;;;;3.47;1.50;;;;;;;;;;5059419;28;20461;-72
2021/04/02 02:03:54;;;;;;;3.80;1.37;;;;;;;;;;5059487;28;20445;-71
2021/04/02 02:06:23;;;;;;;3.27;1.63;;;;;;;;;;5059879;28;20493;-72
2021/04/02 02:08:52;;;;;;;2.30;1.13;;;;;;;;;;5059558;28;20455;-71
2021/04/02 02:11:20;;;;;;;3.53;2.07;;;;;;;;;;5059249;28;20492;-71
2021/04/02 02:13:50;;;;;;;2.43;1.30;;;;;;;;;;5059364;28;20434;-71
2021/04/02 02:19:11;;;;;;;2.70;1.80;;;;;;;;;;5050390;28;20430;-71
2021/04/02 02:21:40;;;;;;;5.17;1.70;;;;;;;;;;5059595;28;20464;-71
2021/04/02 02:24:08;;;;;;;2.27;1.33;;;;;;;;;;5059148;28;20496;-72
2021/04/02 02:26:35;;;;;;;2.80;1.50;;;;;;;;;;5059100;28;20868;-72
2021/04/02 02:29:03;;;;;;;2.80;1.60;;;;;;;;;;5058634;28;20850;-72
2021/04/02 02:31:31;;;;;;;2.03;1.10;;;;;;;;;;5059162;28;20543;-71
2021/04/02 02:34:00;;;;;;;2.73;1.30;;;;;;;;;;5059352;28;20855;-71
2021/04/02 02:36:30;;;;;;;2.13;1.20;;;;;;;;;;5059085;28;20472;-72
2021/04/02 02:38:57;;;;;;;3.80;1.90;;;;;;;;;;5059103;28;20454;-71
2021/04/02 02:41:26;;;;;;;2.50;1.30;;;;;;;;;;5058920;28;20484;-72
2021/04/02 02:43:54;;;;;;;2.13;1.40;;;;;;;;;;5058765;28;20487;-71
2021/04/02 02:46:22;;;;;;;2.70;1.40;;;;;;;;;;5059041;28;20461;-71
2021/04/02 02:48:51;;;;;;;3.33;1.43;;;;;;;;;;5058641;28;20456;-72
2021/04/02 02:51:18;;;;;;;2.30;1.77;;;;;;;;;;5058876;28;20570;-71
2021/04/02 02:53:47;;;;;;;5.67;1.90;;;;;;;;;;5058542;28;20513;-71
2021/04/02 02:56:16;;;;;;;4.10;1.60;;;;;;;;;;5058385;28;20472;-71
2021/04/02 02:58:44;;;;;;;2.80;1.50;;;;;;;;;;5057691;28;20449;-71
2021/04/02 03:01:12;;;;;;;3.90;2.10;;;;;;;;;;5057666;28;20456;-71
2021/04/02 03:03:40;;;;;;;2.47;1.97;;;;;;;;;;5058239;28;20865;-71
2021/04/02 03:06:08;;;;;;;3.07;1.90;;;;;;;;;;5058289;28;20870;-71
2021/04/02 03:08:40;;;;;;;2.17;1.53;;;;;;;;;;5057679;28;20466;-71
2021/04/02 03:11:10;;;;;;;2.03;1.20;;;;;;;;;;5058099;28;20515;-71
2021/04/02 03:13:38;;;;;;;2.40;1.70;;;;;;;;;;5057503;28;20882;-71
2021/04/02 03:16:10;;;;;;;2.43;1.53;;;;;;;;;;5058126;28;20462;-71
2021/04/02 03:18:38;;;;;;;3.10;2.20;;;;;;;;;;5058015;28;20459;-71
2021/04/02 03:21:06;;;;;;;2.67;1.63;;;;;;;;;;5057650;28;20861;-71
2021/04/02 03:23:34;;;;;;;3.07;1.77;;;;;;;;;;5057857;28;20881;-71
2021/04/02 03:26:02;;;;;;;4.00;1.83;;;;;;;;;;5057405;28;20452;-71
2021/04/02 03:28:30;;;;;;;6.47;1.70;;;;;;;;;;5057461;28;20454;-71
2021/04/02 03:30:58;;;;;;;1.80;1.30;;;;;;;;;;5057238;28;20557;-71
2021/04/02 03:33:26;;;;;;;2.80;1.30;;;;;;;;;;5057089;28;20473;-71
2021/04/02 03:35:54;;;;;;;2.30;1.50;;;;;;;;;;5057250;28;20457;-71
2021/04/02 03:38:24;;;;;;;2.90;1.47;;;;;;;;;;5056930;28;20881;-71
2021/04/02 03:40:52;;;;;;;3.20;1.83;;;;;;;;;;5057029;28;20526;-71
2021/04/02 03:43:19;;;;;;;2.63;1.30;;;;;;;;;;5056517;28;20452;-71
2021/04/02 03:45:50;;;;;;;4.93;1.53;;;;;;;;;;5056972;28;20464;-71
2021/04/02 03:48:19;;;;;;;4.00;1.57;;;;;;;;;;5056716;28;20470;-71
2021/04/02 03:50:49;;;;;;;2.93;1.50;;;;;;;;;;5056407;28;20611;-71
2021/04/02 03:53:17;;;;;;;3.87;1.30;;;;;;;;;;5056687;28;20862;-71
2021/04/02 03:55:46;;;;;;;3.40;1.57;;;;;;;;;;5056955;28;20526;-71
2021/04/02 03:58:15;;;;;;;2.30;1.30;;;;;;;;;;5056829;28;20524;-71
2021/04/02 04:03:48;;;;;;;1.87;1.27;;;;;;;;;;5056351;28;20445;-71
2021/04/02 04:06:17;;;;;;;2.50;1.70;;;;;;;;;;5056861;28;20469;-71
2021/04/02 04:08:45;;;;;;;2.43;1.27;;;;;;;;;;5056287;28;20497;-71
2021/04/02 04:11:13;;;;;;;2.47;1.60;;;;;;;;;;5056812;28;20499;-71
2021/04/02 04:13:44;;;;;;;2.30;1.50;;;;;;;;;;5056906;28;20458;-71
2021/04/02 04:16:13;;;;;;;2.83;1.30;;;;;;;;;;5056421;28;20519;-71
2021/04/02 04:18:41;;;;;;;2.93;1.73;;;;;;;;;;5056597;28;20499;-71
2021/04/02 04:21:11;;;;;;;3.20;2.00;;;;;;;;;;5056500;28;20932;-71
2021/04/02 04:23:40;;;;;;;2.70;1.50;;;;;;;;;;5056575;28;20745;-71
2021/04/02 04:26:07;;;;;;;2.90;1.93;;;;;;;;;;5056694;28;20465;-71
2021/04/02 04:28:36;;;;;;;3.60;2.03;;;;;;;;;;5056268;28;20868;-71
2021/04/02 04:31:06;;;;;;;5.73;3.80;;;;;;;;;;5056684;28;20502;-71
2021/04/02 04:33:33;;;;;;;6.20;1.70;;;;;;;;;;5056120;28;20669;-71
2021/04/02 04:36:01;;;;;;;2.40;1.50;;;;;;;;;;5056471;28;20460;-71
2021/04/02 04:38:30;;;;;;;5.43;1.40;;;;;;;;;;5056567;28;20527;-71
2021/04/02 04:40:58;;;;;;;4.50;1.63;;;;;;;;;;5056614;28;20751;-71
2021/04/02 04:43:27;;;;;;;3.30;1.50;;;;;;;;;;5056242;28;21059;-71
2021/04/02 04:45:54;;;;;;;2.00;1.53;;;;;;;;;;5056007;28;20467;-71
2021/04/02 04:48:22;;;;;;;2.17;1.30;;;;;;;;;;5056476;28;20467;-71
2021/04/02 04:50:50;;;;;;;3.83;1.80;;;;;;;;;;5056179;28;20507;-71
2021/04/02 04:53:18;;;;;;;3.47;1.73;;;;;;;;;;5056196;28;20457;-71
2021/04/02 04:55:46;;;;;;;2.83;1.80;;;;;;;;;;5056061;28;20462;-71
2021/04/02 04:58:15;;;;;;;2.53;1.70;;;;;;;;;;5056447;28;20720;-71
2021/04/02 05:00:43;;;;;;;3.90;2.33;;;;;;;;;;5056234;28;20456;-71
2021/04/02 05:03:12;;;;;;;3.73;1.70;;;;;;;;;;5057740;28;20727;-71
2021/04/02 05:05:41;;;;;;;4.10;1.60;;;;;;;;;;5057914;28;20866;-71
2021/04/02 05:08:10;;;;;;;2.50;1.37;;;;;;;;;;5055911;28;20462;-71
2021/04/02 05:10:39;;;;;;;4.30;1.70;;;;;;;;;;5057392;28;20557;-71
2021/04/02 05:13:08;;;;;;;2.70;1.37;;;;;;;;;;5056193;28;20457;-71
2021/04/02 05:15:36;;;;;;;2.30;1.37;;;;;;;;;;5057120;28;20735;-71
2021/04/02 05:18:05;;;;;;;2.70;2.00;;;;;;;;;;5056006;28;20449;-71
2021/04/02 05:20:34;;;;;;;2.40;1.30;;;;;;;;;;5055901;28;20459;-71
2021/04/02 05:23:01;;;;;;;2.70;1.90;;;;;;;;;;5060582;28;20945;-71
2021/04/02 05:25:28;;;;;;;2.70;2.00;;;;;;;;;;5059335;28;20486;-72
2021/04/02 05:27:59;;;;;;;5.10;2.23;;;;;;;;;;5059631;28;20466;-71
2021/04/02 05:30:28;;;;;;;2.40;1.53;;;;;;;;;;5059433;28;20758;-71
2021/04/02 05:32:55;;;;;;;6.53;2.63;;;;;;;;;;5059470;28;20471;-71
2021/04/02 05:35:23;;;;;;;3.50;2.03;;;;;;;;;;5059272;28;20457;-72
2021/04/02 05:37:50;;;;;;;5.83;1.73;;;;;;;;;;5059213;28;20464;-71
2021/04/02 05:40:18;;;;;;;2.40;1.77;;;;;;;;;;5059753;28;20492;-71
2021/04/02 05:42:48;;;;;;;2.90;1.70;;;;;;;;;;5059379;28;20457;-71
2021/04/02 05:45:16;;;;;;;3.67;2.20;;;;;;;;;;5058961;28;20468;-72
2021/04/02 05:47:45;;;;;;;3.90;2.50;;;;;;;;;;5059558;28;20916;-71
2021/04/02 05:50:13;;;;;;;4.03;2.43;;;;;;;;;;5059096;28;20491;-71
2021/04/02 05:52:41;;;;;;;4.80;2.60;;;;;;;;;;5058893;28;20845;-71
2021/04/02 05:55:10;;;;;;;3.10;2.07;;;;;;;;;;5059093;28;20469;-71
2021/04/02 05:57:37;;;;;;;6.60;3.20;;;;;;;;;;5058518;28;20860;-71
2021/04/02 06:00:06;;;;;;;4.03;2.40;;;;;;;;;;5058868;28;20886;-71
2021/04/02 06:02:34;;;;;;;3.40;2.23;;;;;;;;;;5059205;28;20455;-71
2021/04/02 06:05:02;;;;;;;5.00;2.70;;;;;;;;;;5059205;28;20475;-71
2021/04/02 06:07:32;;;;;;;4.80;2.73;;;;;;;;;;5058814;28;20464;-71
2021/04/02 06:10:00;;;;;;;6.03;3.93;;;;;;;;;;5058860;28;20500;-72
2021/04/02 06:12:27;;;;;;;8.80;4.40;;;;;;;;;;5058683;28;20453;-71
2021/04/02 06:14:54;;;;;;;9.40;5.63;;;;;;;;;;5059142;28;20518;-71
2021/04/02 06:17:22;;;;;;;11.47;7.33;;;;;;;;;;5059043;28;20450;-71
2021/04/02 06:20:03;;;;;;;14.33;7.23;;;;;;;;;;5058720;28;20468;-72
2021/04/02 06:22:31;;;;;;;18.43;6.50;;;;;;;;;;5058776;28;20464;-72
2021/04/02 06:25:04;;;;;;;10.53;5.17;;;;;;;;;;5057721;28;20461;-72
2021/04/02 06:27:32;;;;;;;15.50;8.57;;;;;;;;;;5058934;28;20456;-71
2021/04/02 06:30:03;;;;;;;14.77;9.17;;;;;;;;;;5058414;28;20888;-72
2021/04/02 06:32:34;;;;;;;13.00;7.67;;;;;;;;;;5059159;28;20460;-71
2021/04/02 06:35:07;;;;;;;14.10;9.13;;;;;;;;;;5058176;28;20445;-71
2021/04/02 06:37:38;;;;;;;14.97;8.77;;;;;;;;;;5059706;28;20484;-71
2021/04/02 06:40:10;;;;;;;14.10;9.70;;;;;;;;;;5058132;28;20936;-72
2021/04/02 06:42:38;;;;;;;13.47;10.27;;;;;;;;;;5059126;28;20856;-71
2021/04/02 06:45:08;;;;;;;11.13;7.80;;;;;;;;;;5059020;28;20562;-70
2021/04/02 06:47:36;;;;;;;14.70;9.67;;;;;;;;;;5057976;28;20461;-71
2021/04/02 06:50:14;;;;;;;12.63;7.33;;;;;;;;;;5057857;28;20486;-71
2021/04/02 06:52:42;;;;;;;13.80;9.33;;;;;;;;;;5057629;28;20469;-71
2021/04/02 06:55:12;;;;;;;16.80;9.77;;;;;;;;;;5057655;28;20743;-71
2021/04/02 06:57:45;;;;;;;10.90;6.90;;;;;;;;;;5057920;28;20456;-73
2021/04/02 07:00:13;;;;;;;12.80;9.03;;;;;;;;;;5058155;28;20733;-71
2021/04/02 07:02:43;;;;;;;14.00;8.87;;;;;;;;;;5057834;28;20456;-71
2021/04/02 07:05:11;;;;;;;15.33;10.03;;;;;;;;;;5058592;28;20753;-71
2021/04/02 07:07:39;;;;;;;16.97;9.20;;;;;;;;;;5058942;28;20479;-71
2021/04/02 07:10:09;;;;;;;23.10;10.33;;;;;;;;;;5059048;28;20531;-71
2021/04/02 07:12:39;;;;;;;16.67;8.23;;;;;;;;;;5057935;28;20467;-72
2021/04/02 07:15:07;;;;;;;13.40;7.50;;;;;;;;;;5058788;28;20737;-72
2021/04/02 07:17:35;;;;;;;16.23;8.60;;;;;;;;;;5057063;28;20901;-71
2021/04/02 07:20:03;;;;;;;13.30;6.77;;;;;;;;;;5056843;28;20442;-71
2021/04/02 07:22:32;;;;;;;13.33;6.73;;;;;;;;;;5056956;28;20540;-71
2021/04/02 07:25:00;;;;;;;17.47;9.17;;;;;;;;;;5057563;28;20461;-71
2021/04/02 07:27:29;;;;;;;21.33;9.17;;;;;;;;;;5056565;28;20518;-71
2021/04/02 07:29:56;;;;;;;18.23;10.03;;;;;;;;;;5056846;28;20557;-71
2021/04/02 07:32:24;;;;;;;10.83;6.77;;;;;;;;;;5057557;28;20504;-71
2021/04/02 07:34:52;;;;;;;16.10;8.90;;;;;;;;;;5056992;28;20471;-71
2021/04/02 07:37:19;;;;;;;17.30;10.20;;;;;;;;;;5056051;28;20460;-71
2021/04/02 07:39:47;;;;;;;16.47;8.53;;;;;;;;;;5057069;28;20555;-72
2021/04/02 07:42:15;;;;;;;16.70;8.57;;;;;;;;;;5056558;28;20854;-72
2021/04/02 07:44:49;;;;;;;17.10;8.63;;;;;;;;;;5055814;28;20519;-71
2021/04/02 07:47:16;;;;;;;15.17;9.53;;;;;;;;;;5058310;28;20469;-72
2021/04/02 07:49:57;;;;;;;15.57;7.57;;;;;;;;;;5056181;28;20485;-72
2021/04/02 07:52:31;;;;;;;11.80;6.97;;;;;;;;;;5057983;28;20868;-72
2021/04/02 07:55:09;;;;;;;11.27;7.03;;;;;;;;;;5057925;28;20470;-71
2021/04/02 07:57:54;;;;;;;8.13;5.07;;;;;;;;;;5056805;28;20852;-71
2021/04/02 08:00:27;;;;;;;7.17;4.67;;;;;;;;;;5066294;28;20476;-71
2021/04/02 08:03:11;;;;;;;11.80;4.40;;;;;;;;;;5076489;28;20513;-71
2021/04/02 08:05:38;;;;;;;7.53;4.10;;;;;;;;;;5076557;28;20458;-70
2021/04/02 08:08:09;;;;;;;31.27;6.30;;;;;;;;;;5076064;28;20507;-72
2021/04/02 08:10:36;;;;;;;6.80;4.30;;;;;;;;;;5076647;28;20553;-71
2021/04/02 08:13:16;;;;;;;6.97;3.90;;;;;;;;;;5076152;28;20460;-72
2021/04/02 08:15:45;;;;;;;10.20;2.87;;;;;;;;;;5075804;28;20861;-71
2021/04/02 08:18:33;;;;;;;8.90;3.60;;;;;;;;;;5076864;28;20543;-71
2021/04/02 08:21:13;;;;;;;8.33;2.93;;;;;;;;;;5076212;28;20456;-71
2021/04/02 08:23:41;;;;;;;7.67;2.53;;;;;;;;;;5076517;28;20569;-71
2021/04/02 08:26:08;;;;;;;7.70;1.83;;;;;;;;;;5076965;28;20456;-71
2021/04/02 08:28:35;;;;;;;6.30;2.20;;;;;;;;;;5077209;28;20489;-71
2021/04/02 08:31:04;;;;;;;6.03;1.90;;;;;;;;;;5075409;28;20490;-71
2021/04/02 08:33:31;;;;;;;4.90;2.80;;;;;;;;;;5075616;28;20479;-71
2021/04/02 08:36:01;;;;;;;4.50;2.20;;;;;;;;;;5076120;28;20547;-72
2021/04/02 08:38:30;;;;;;;4.80;1.63;;;;;;;;;;5076026;28;20491;-71
2021/04/02 08:41:15;;;;;;;5.90;1.53;;;;;;;;;;5075617;28;20468;-71
2021/04/02 08:43:42;;;;;;;4.43;1.53;;;;;;;;;;5075934;28;20460;-71
2021/04/02 08:46:11;;;;;;;5.60;1.53;;;;;;;;;;5075531;28;20894;-71
2021/04/02 08:48:41;;;;;;;7.53;1.57;;;;;;;;;;5075381;28;20480;-71
2021/04/02 08:51:08;;;;;;;10.17;2.47;;;;;;;;;;5075793;28;20492;-71
2021/04/02 08:53:41;;;;;;;5.70;1.17;;;;;;;;;;5075754;28;20538;-71
2021/04/02 08:56:09;;;;;;;9.17;2.30;;;;;;;;;;5077439;28;21077;-71
2021/04/02 08:58:36;;;;;;;8.00;2.67;;;;;;;;;;5080260;28;20568;-71
2021/04/02 09:01:04;;;;;;;6.03;1.47;;;;;;;;;;5079811;28;20507;-71
2021/04/02 09:03:35;;;;;;;6.13;2.10;;;;;;;;;;5080166;28;20452;-71
2021/04/02 09:06:03;;;;;;;4.60;1.77;;;;;;;;;;5078178;28;20916;-71
2021/04/02 09:08:30;;;;;;;4.57;1.60;;;;;;;;;;5078585;28;20896;-71
2021/04/02 09:10:57;;;;;;;3.60;1.50;;;;;;;;;;5079134;28;20488;-71
2021/04/02 09:13:28;;;;;;;11.90;2.80;;;;;;;;;;5077148;28;20447;-71
2021/04/02 09:15:56;;;;;;;3.80;1.80;;;;;;;;;;5078843;28;20454;-71
2021/04/02 09:18:28;;;;;;;6.40;1.50;;;;;;;;;;5080231;28;20460;-71
2021/04/02 09:20:57;;;;;;;1.90;1.30;;;;;;;;;;5070590;28;20493;-70
2021/04/02 09:23:24;;;;;;;4.80;1.87;;;;;;;;;;5060012;28;20500;-71
2021/04/02 09:25:53;;;;;;;5.87;1.80;;;;;;;;;;5058686;28;20458;-71
2021/04/02 09:28:27;;;;;;;11.13;2.37;;;;;;;;;;5058828;28;20459;-71
2021/04/02 09:31:14;;;;;;;7.43;3.10;;;;;;;;;;5059213;28;20489;-71
2021/04/02 09:33:42;;;;;;;6.90;2.00;;;;;;;;;;5067698;28;20464;-71
2021/04/02 09:36:10;;;;;;;5.13;1.40;;;;;;;;;;5079805;28;20534;-71
2021/04/02 09:38:38;;;;;;;5.47;2.50;;;;;;;;;;5079805;28;20732;-71
2021/04/02 09:41:05;;;;;;;4.90;1.63;;;;;;;;;;5078608;28;20456;-71
2021/04/02 09:43:45;;;;;;;6.30;2.50;;;;;;;;;;5079641;28;20461;-70
2021/04/02 09:46:13;;;;;;;5.77;1.23;;;;;;;;;;5078973;28;20704;-71
2021/04/02 09:48:41;;;;;;;4.03;1.73;;;;;;;;;;5078886;28;20864;-71
2021/04/02 09:51:08;;;;;;;2.93;1.50;;;;;;;;;;5079145;28;20575;-70
2021/04/02 09:53:36;;;;;;;8.70;2.17;;;;;;;;;;5078485;28;20959;-70
2021/04/02 09:56:05;;;;;;;8.73;1.67;;;;;;;;;;5078447;28;20461;-70
2021/04/02 09:58:33;;;;;;;2.37;0.87;;;;;;;;;;5067922;28;20732;-71
2021/04/02 10:01:00;;;;;;;6.70;2.67;;;;;;;;;;5058883;28;20453;-72
2021/04/02 10:03:27;;;;;;;6.50;1.63;;;;;;;;;;5057871;28;20675;-70
2021/04/02 10:05:55;;;;;;;6.53;2.67;;;;;;;;;;5058260;28;20767;-71
2021/04/02 10:08:22;;;;;;;8.53;2.27;;;;;;;;;;5057908;28;21109;-70
2021/04/02 10:10:50;;;;;;;4.27;1.20;;;;;;;;;;5058928;28;20481;-70
2021/04/02 10:13:18;;;;;;;5.20;1.50;;;;;;;;;;5058654;28;20473;-71
2021/04/02 10:15:45;;;;;;;6.23;1.13;;;;;;;;;;5057893;28;20537;-71
2021/04/02 10:18:15;;;;;;;5.20;2.10;;;;;;;;;;5058043;28;20886;-70
2021/04/02 10:20:45;;;;;;;5.90;1.33;;;;;;;;;;5059505;28;20450;-70
2021/04/02 10:23:13;;;;;;;6.87;2.20;;;;;;;;;;5057917;28;20454;-70
2021/04/02 10:25:40;;;;;;;8.37;1.80;;;;;;;;;;5058812;28;20755;-70
2021/04/02 10:28:08;;;;;;;7.57;1.63;;;;;;;;;;5059345;28;20924;-71
2021/04/02 10:30:35;;;;;;;5.97;2.10;;;;;;;;;;5058213;28;20533;-71
2021/04/02 10:33:02;;;;;;;5.93;1.87;;;;;;;;;;5058117;28;20450;-71
2021/04/02 10:35:31;;;;;;;4.93;1.17;;;;;;;;;;5057999;28;20889;-71
2021/04/02 10:37:59;;;;;;;4.90;1.90;;;;;;;;;;5058426;28;20759;-71
2021/04/02 10:40:26;;;;;;;6.50;1.80;;;;;;;;;;5057884;28;20486;-71
2021/04/02 10:42:54;;;;;;;3.83;1.47;;;;;;;;;;5058365;28;20874;-70
2021/04/02 10:45:22;;;;;;;7.00;2.30;;;;;;;;;;5058453;28;20540;-71
2021/04/02 10:47:49;;;;;;;12.10;2.57;;;;;;;;;;5056824;28;20568;-71
2021/04/02 10:50:16;;;;;;;8.60;2.20;;;;;;;;;;5056198;28;20493;-71
2021/04/02 10:52:44;;;;;;;4.50;1.17;;;;;;;;;;5057906;28;20711;-71
2021/04/02 10:55:12;;;;;;;9.47;2.70;;;;;;;;;;5058069;28;20537;-73
2021/04/02 10:57:39;;;;;;;5.97;1.70;;;;;;;;;;5056695;28;20441;-72
2021/04/02 11:00:07;;;;;;;9.90;2.03;;;;;;;;;;5058763;28;20772;-72
2021/04/02 11:02:35;;;;;;;6.27;2.27;;;;;;;;;;5057722;28;20454;-72
2021/04/02 11:05:05;;;;;;;5.27;2.47;;;;;;;;;;5056668;28;20469;-72
2021/04/02 11:07:35;;;;;;;10.93;2.50;;;;;;;;;;5064025;28;20457;-73
2021/04/02 11:10:05;;;;;;;4.03;1.23;;;;;;;;;;5076801;28;20472;-72
2021/04/02 11:12:32;;;;;;;11.97;2.77;;;;;;;;;;5076566;28;20450;-70
2021/04/02 11:15:00;;;;;;;6.30;1.43;;;;;;;;;;5079596;28;20514;-71
2021/04/02 11:17:28;;;;;;;8.53;3.57;;;;;;;;;;5077817;28;20461;-71
2021/04/02 11:19:58;;;;;;;6.43;2.20;;;;;;;;;;5077820;28;20488;-71
2021/04/02 11:22:25;;;;;;;7.27;2.60;;;;;;;;;;5077383;28;20445;-71
2021/04/02 11:24:53;;;;;;;12.07;2.37;;;;;;;;;;5076511;28;20457;-71
2021/04/02 11:27:20;;;;;;;7.33;2.20;;;;;;;;;;5079118;28;20453;-71
2021/04/02 11:29:48;;;;;;;7.30;1.83;;;;;;;;;;5078520;28;20563;-71
2021/04/02 11:32:18;;;;;;;3.83;1.70;;;;;;;;;;5077140;28;20493;-71
2021/04/02 11:34:45;;;;;;;4.63;2.50;;;;;;;;;;5078256;28;20518;-71
2021/04/02 11:37:16;;;;;;;6.00;1.90;;;;;;;;;;5077951;28;21040;-71
2021/04/02 11:39:44;;;;;;;6.33;1.90;;;;;;;;;;5067970;28;20774;-70
2021/04/02 11:42:13;;;;;;;6.33;2.60;;;;;;;;;;5055592;28;20855;-71
2021/04/02 11:44:41;;;;;;;7.73;1.87;;;;;;;;;;5055882;28;20465;-71
2021/04/02 11:47:08;;;;;;;6.53;2.67;;;;;;;;;;5055368;28;20446;-71
2021/04/02 11:49:36;;;;;;;7.97;1.53;;;;;;;;;;5056241;28;20461;-71
2021/04/02 11:52:04;;;;;;;13.20;1.57;;;;;;;;;;5056201;28;20496;-70
2021/04/02 11:54:34;;;;;;;4.20;1.70;;;;;;;;;;5057894;28;20458;-70
2021/04/02 11:57:01;;;;;;;1.87;0.87;;;;;;;;;;5058021;28;20457;-71
2021/04/02 11:59:28;;;;;;;5.10;1.63;;;;;;;;;;5055858;28;20858;-71
2021/04/02 12:01:55;;;;;;;3.40;2.23;;;;;;;;;;5056659;28;20470;-71
2021/04/02 12:04:23;;;;;;;10.00;3.60;;;;;;;;;;5055446;28;20462;-71
2021/04/02 12:06:52;;;;;;;5.93;1.27;;;;;;;;;;5055664;28;20489;-70
2021/04/02 12:09:20;;;;;;;6.57;2.27;;;;;;;;;;5065093;28;20871;-70
2021/04/02 12:11:49;;;;;;;4.03;1.40;;;;;;;;;;5075917;28;20481;-70
2021/04/02 12:14:16;;;;;;;7.60;1.77;;;;;;;;;;5073586;28;20456;-70
2021/04/02 12:16:44;;;;;;;7.00;1.60;;;;;;;;;;5075776;28;20453;-71
2021/04/02 12:19:11;;;;;;;5.40;1.60;;;;;;;;;;5075237;28;20903;-70
2021/04/02 12:21:38;;;;;;;6.03;2.00;;;;;;;;;;5075684;28;20544;-71
2021/04/02 12:24:06;;;;;;;7.33;2.83;;;;;;;;;;5059996;28;20464;-70
2021/04/02 12:26:34;;;;;;;7.37;2.60;;;;;;;;;;5056081;28;20544;-71
2021/04/02 12:29:02;;;;;;;7.57;1.70;;;;;;;;;;5055109;28;20508;-70
2021/04/02 12:31:31;;;;;;;2.80;1.20;;;;;;;;;;5054546;28;20497;-72
2021/04/02 12:33:58;;;;;;;3.00;1.33;;;;;;;;;;5075771;28;20453;-71
2021/04/02 12:36:26;;;;;;;6.77;2.40;;;;;;;;;;5075042;28;20608;-70
2021/04/02 12:38:53;;;;;;;5.50;1.90;;;;;;;;;;5076726;28;20457;-71
2021/04/02 12:41:20;;;;;;;9.37;2.50;;;;;;;;;;5076066;28;20468;-72
2021/04/02 12:43:47;;;;;;;5.33;1.83;;;;;;;;;;5075653;28;20547;-70
2021/04/02 12:46:16;;;;;;;1.83;0.93;;;;;;;;;;5075877;28;20822;-71
2021/04/02 12:48:43;;;;;;;7.87;1.60;;;;;;;;;;5075830;28;20457;-70
2021/04/02 12:51:10;;;;;;;13.00;2.00;;;;;;;;;;5076276;28;20515;-71
2021/04/02 12:53:37;;;;;;;3.03;1.30;;;;;;;;;;5076075;28;20479;-71
2021/04/02 12:56:05;;;;;;;14.30;1.50;;;;;;;;;;5075469;28;20968;-70
2021/04/02 12:58:33;;;;;;;8.47;1.20;;;;;;;;;;5075425;28;20455;-71
2021/04/02 13:01:00;;;;;;;3.50;1.23;;;;;;;;;;5074726;28;20514;-70
2021/04/02 13:03:28;;;;;;;7.60;1.63;;;;;;;;;;5075731;28;20453;-70
2021/04/02 13:05:59;;;;;;;2.90;1.33;;;;;;;;;;5075258;28;20485;-70
2021/04/02 13:08:26;;;;;;;2.10;1.30;;;;;;;;;;5074442;28;20472;-70
2021/04/02 13:10:53;;;;;;;5.30;2.60;;;;;;;;;;5074261;28;20599;-70
2021/04/02 13:13:20;;;;;;;3.53;1.03;;;;;;;;;;5074417;28;20457;-70
2021/04/02 13:15:48;;;;;;;5.73;1.87;;;;;;;;;;5074808;28;20693;-70
2021/04/02 13:18:15;;;;;;;3.40;1.40;;;;;;;;;;5072575;28;20549;-69
2021/04/02 13:20:43;;;;;;;4.10;1.67;;;;;;;;;;5073113;28;20546;-70
2021/04/02 13:23:10;;;;;;;11.77;1.60;;;;;;;;;;5073837;28;20998;-71
2021/04/02 13:25:38;;;;;;;3.47;1.00;;;;;;;;;;5075453;28;20469;-71
2021/04/02 13:28:06;;;;;;;2.90;1.47;;;;;;;;;;5074713;28;20526;-70
2021/04/02 13:30:33;;;;;;;4.83;1.70;;;;;;;;;;5074325;28;20524;-71
2021/04/02 13:33:02;;;;;;;4.77;1.60;;;;;;;;;;5076252;28;20452;-70
2021/04/02 13:35:30;;;;;;;3.27;1.17;;;;;;;;;;5074729;28;20457;-70
2021/04/02 13:37:59;;;;;;;3.37;1.33;;;;;;;;;;5076461;28;20480;-71
2021/04/02 13:40:29;;;;;;;3.57;1.47;;;;;;;;;;5074070;28;20548;-71
2021/04/02 13:42:56;;;;;;;4.90;1.30;;;;;;;;;;5057652;28;20489;-71
2021/04/02 13:45:27;;;;;;;6.87;1.40;;;;;;;;;;5058287;28;20504;-70
2021/04/02 13:47:55;;;;;;;7.70;1.43;;;;;;;;;;5058864;28;20481;-70
2021/04/02 13:50:27;;;;;;;2.60;0.90;;;;;;;;;;5058619;28;20453;-71
2021/04/02 13:52:54;;;;;;;5.97;1.37;;;;;;;;;;5057636;28;20568;-71
2021/04/02 13:55:24;;;;;;;6.47;1.60;;;;;;;;;;5058024;28;20563;-71
2021/04/02 13:57:51;;;;;;;2.47;1.53;;;;;;;;;;5058559;28;20454;-71
2021/04/02 14:00:20;;;;;;;3.40;1.20;;;;;;;;;;5057947;28;20489;-71
2021/04/02 14:02:47;;;;;;;4.60;2.00;;;;;;;;;;5070338;28;20518;-71
2021/04/02 14:05:18;;;;;;;7.03;1.37;;;;;;;;;;5073998;28;20472;-72
2021/04/02 14:07:46;;;;;;;7.53;1.73;;;;;;;;;;5079931;28;20935;-70
2021/04/02 14:10:14;;;;;;;3.73;2.13;;;;;;;;;;5067427;28;20897;-71
2021/04/02 14:12:43;;;;;;;5.57;1.60;;;;;;;;;;5059472;28;21046;-71
2021/04/02 14:15:11;;;;;;;3.73;1.60;;;;;;;;;;5058271;28;20453;-71
2021/04/02 14:17:39;;;;;;;2.70;1.23;;;;;;;;;;5059154;28;20481;-70
2021/04/02 14:20:09;;;;;;;4.37;1.70;;;;;;;;;;5058810;28;20757;-70
2021/04/02 14:22:36;;;;;;;5.23;1.30;;;;;;;;;;5059799;28;20457;-70
2021/04/02 14:25:04;;;;;;;1.43;1.00;;;;;;;;;;5075050;28;20456;-70
2021/04/02 14:27:31;;;;;;;2.27;1.13;;;;;;;;;;5064235;28;20835;-70
2021/04/02 14:29:59;;;;;;;3.00;1.00;;;;;;;;;;5057730;28;20491;-70
2021/04/02 14:32:26;;;;;;;1.73;0.83;;;;;;;;;;5058396;28;20517;-70
2021/04/02 14:34:54;;;;;;;1.40;0.90;;;;;;;;;;5057428;28;20558;-70
2021/04/02 14:37:21;;;;;;;5.30;0.90;;;;;;;;;;5059050;28;20490;-71
2021/04/02 14:39:48;;;;;;;5.07;1.20;;;;;;;;;;5057570;28;20541;-70
2021/04/02 14:42:15;;;;;;;1.30;0.60;;;;;;;;;;5058603;28;20454;-69
2021/04/02 14:44:43;;;;;;;1.27;0.90;;;;;;;;;;5058198;28;20878;-70
2021/04/02 14:47:12;;;;;;;2.90;1.10;;;;;;;;;;5057828;28;20438;-75
2021/04/02 14:49:39;;;;;;;1.97;1.17;;;;;;;;;;5057748;28;20520;-70
2021/04/02 14:52:07;;;;;;;6.50;1.10;;;;;;;;;;5060512;28;20906;-70
2021/04/02 14:54:34;;;;;;;6.93;0.80;;;;;;;;;;5078120;28;20493;-70
2021/04/02 14:57:02;;;;;;;1.67;0.70;;;;;;;;;;5062274;28;20477;-70